Time;durP1;ratioP1;P1;durP2;ratioP2;P2;SDS_P1;SDS_P2;PMS_P1;PMS_P2;Temp;Humidity;BMP_temperature;BMP_pressure;BME280_temperature;BME280_humidity;BME280_pressure;Samples;Min_cycle;Max_cycle;Signal;HPM_P1;HPM_P2
2022/07/08 00:01:39;;;;;;;4.10;1.75;;;14.70;99.90;;;;;;601904;238;26593;-68
2022/07/08 00:04:07;;;;;;;4.82;2.20;;;14.60;99.90;;;;;;602087;235;27221;-69
2022/07/08 00:06:34;;;;;;;4.72;1.90;;;14.60;99.90;;;;;;601813;238;26586;-68
2022/07/08 00:09:01;;;;;;;3.87;1.50;;;14.50;99.90;;;;;;601715;237;26595;-68
2022/07/08 00:11:29;;;;;;;4.03;1.85;;;14.40;99.90;;;;;;601891;236;26645;-68
2022/07/08 00:13:57;;;;;;;7.90;2.15;;;14.40;99.90;;;;;;601542;237;26618;-68
2022/07/08 00:16:25;;;;;;;3.17;1.90;;;14.40;99.90;;;;;;604697;235;26639;-68
2022/07/08 00:18:53;;;;;;;6.05;1.70;;;14.30;99.90;;;;;;608125;236;26596;-68
2022/07/08 00:21:20;;;;;;;6.50;1.90;;;14.30;99.90;;;;;;604460;234;26606;-68
2022/07/08 00:23:48;;;;;;;6.12;2.05;;;14.30;99.90;;;;;;605212;236;26556;-68
2022/07/08 00:26:15;;;;;;;4.53;1.65;;;14.30;99.90;;;;;;608285;235;26688;-67
2022/07/08 00:28:42;;;;;;;5.10;1.75;;;14.30;99.90;;;;;;609627;236;26581;-68
2022/07/08 00:31:10;;;;;;;3.25;1.80;;;14.30;99.90;;;;;;605456;236;26836;-68
2022/07/08 00:33:38;;;;;;;4.65;1.83;;;14.20;99.90;;;;;;601531;237;26829;-68
2022/07/08 00:36:05;;;;;;;4.43;1.90;;;14.30;99.90;;;;;;602055;236;26628;-68
2022/07/08 00:38:33;;;;;;;4.05;1.73;;;14.20;99.90;;;;;;604478;238;26843;-68
2022/07/08 00:41:01;;;;;;;5.05;2.10;;;14.20;99.90;;;;;;604817;236;26611;-68
2022/07/08 00:43:34;;;;;;;4.87;2.08;;;14.20;99.90;;;;;;603238;236;26602;-68
2022/07/08 00:46:01;;;;;;;4.55;2.03;;;14.20;99.90;;;;;;608657;232;26583;-68
2022/07/08 00:48:29;;;;;;;7.25;2.33;;;14.20;99.90;;;;;;606234;230;26581;-68
2022/07/08 00:50:58;;;;;;;4.37;1.80;;;14.20;99.90;;;;;;605442;236;26634;-68
2022/07/08 00:53:25;;;;;;;5.32;2.35;;;14.20;99.90;;;;;;605277;237;26837;-68
2022/07/08 00:55:53;;;;;;;2.75;1.77;;;14.20;99.90;;;;;;606901;236;26629;-68
2022/07/08 00:58:20;;;;;;;4.00;1.85;;;14.10;99.90;;;;;;610274;235;26811;-68
2022/07/08 01:00:47;;;;;;;4.97;1.92;;;14.10;99.90;;;;;;608180;235;26610;-68
2022/07/08 01:03:14;;;;;;;3.42;1.92;;;14.10;99.90;;;;;;603457;236;27177;-68
2022/07/08 01:05:42;;;;;;;4.10;1.85;;;14.20;99.90;;;;;;607377;235;26629;-68
2022/07/08 01:08:10;;;;;;;4.60;1.65;;;14.20;99.90;;;;;;605720;235;26578;-68
2022/07/08 01:10:38;;;;;;;4.97;1.62;;;14.10;99.90;;;;;;610913;235;26676;-68
2022/07/08 01:13:06;;;;;;;5.10;1.95;;;14.10;99.90;;;;;;605974;235;26591;-68
2022/07/08 01:15:33;;;;;;;4.50;1.80;;;14.10;99.90;;;;;;604514;236;26602;-68
2022/07/08 01:18:00;;;;;;;5.95;2.00;;;14.10;99.90;;;;;;602573;236;26591;-68
2022/07/08 01:20:28;;;;;;;4.55;2.08;;;14.10;99.90;;;;;;610087;236;26894;-68
2022/07/08 01:22:55;;;;;;;7.18;1.87;;;14.10;99.90;;;;;;608467;236;26560;-68
2022/07/08 01:25:23;;;;;;;5.05;1.70;;;14.10;99.90;;;;;;604908;238;26550;-68
2022/07/08 01:27:51;;;;;;;3.75;1.92;;;14.10;99.90;;;;;;602553;235;26595;-68
2022/07/08 01:30:19;;;;;;;7.20;2.40;;;14.10;99.90;;;;;;604177;235;26647;-68
2022/07/08 01:32:46;;;;;;;5.50;2.12;;;14.10;99.90;;;;;;601962;238;26615;-68
2022/07/08 01:35:13;;;;;;;5.00;2.00;;;14.20;99.90;;;;;;601633;236;26642;-68
2022/07/08 01:37:40;;;;;;;6.12;2.25;;;14.20;99.90;;;;;;609839;235;26589;-68
2022/07/08 01:40:09;;;;;;;6.50;2.42;;;14.30;99.90;;;;;;604748;234;26617;-68
2022/07/08 01:42:36;;;;;;;5.03;2.22;;;14.40;99.90;;;;;;603946;236;26587;-68
2022/07/08 01:45:03;;;;;;;5.57;2.35;;;14.40;99.90;;;;;;607749;236;26850;-68
2022/07/08 01:47:32;;;;;;;4.72;1.98;;;14.50;99.90;;;;;;603445;236;26643;-68
2022/07/08 01:50:00;;;;;;;6.75;2.22;;;14.50;99.90;;;;;;604125;236;26599;-68
2022/07/08 01:52:28;;;;;;;5.10;1.73;;;14.50;99.90;;;;;;607706;235;26594;-68
2022/07/08 01:54:55;;;;;;;6.40;2.60;;;14.40;99.90;;;;;;605600;234;26587;-68
2022/07/08 01:57:22;;;;;;;6.35;2.03;;;14.50;99.90;;;;;;611014;232;26638;-68
2022/07/08 01:59:50;;;;;;;5.87;2.50;;;14.50;99.90;;;;;;603098;235;26592;-68
2022/07/08 02:02:17;;;;;;;3.85;2.05;;;14.40;99.90;;;;;;603618;237;26646;-68
2022/07/08 02:04:44;;;;;;;6.05;2.10;;;14.40;99.90;;;;;;602180;237;26858;-68
2022/07/08 02:07:11;;;;;;;6.82;2.35;;;14.40;99.90;;;;;;605424;235;26569;-68
2022/07/08 02:09:39;;;;;;;4.22;1.90;;;14.40;99.90;;;;;;601999;237;26962;-68
2022/07/08 02:14:41;;;;;;;6.97;2.33;;;14.50;99.90;;;;;;608635;236;26824;-68
2022/07/08 02:17:08;;;;;;;4.47;2.45;;;14.50;99.90;;;;;;603857;237;26558;-68
2022/07/08 02:19:35;;;;;;;6.22;2.30;;;14.50;99.90;;;;;;603603;235;26825;-67
2022/07/08 02:22:03;;;;;;;3.12;1.80;;;14.40;99.90;;;;;;601686;237;26599;-65
2022/07/08 02:24:30;;;;;;;5.20;2.42;;;14.30;99.90;;;;;;606728;234;26572;-66
2022/07/08 02:26:57;;;;;;;5.18;2.65;;;14.30;99.90;;;;;;604694;235;26826;-66
2022/07/08 02:29:25;;;;;;;4.15;1.95;;;14.20;99.90;;;;;;603490;236;26602;-66
2022/07/08 02:31:53;;;;;;;6.12;1.90;;;14.20;99.90;;;;;;604799;236;26628;-66
2022/07/08 02:34:20;;;;;;;4.75;2.05;;;14.10;99.90;;;;;;606912;235;26640;-66
2022/07/08 02:36:48;;;;;;;4.07;2.00;;;14.30;99.90;;;;;;607093;235;26806;-66
2022/07/08 02:39:15;;;;;;;3.22;1.73;;;14.30;99.90;;;;;;602566;235;26860;-66
2022/07/08 02:41:42;;;;;;;4.97;2.08;;;14.40;99.90;;;;;;604226;232;26670;-66
2022/07/08 02:44:09;;;;;;;6.45;2.25;;;14.50;99.90;;;;;;609838;235;27317;-66
2022/07/08 02:46:37;;;;;;;4.82;1.90;;;14.50;99.90;;;;;;604731;234;26581;-66
2022/07/08 02:49:04;;;;;;;5.12;1.90;;;14.60;99.90;;;;;;604674;236;26866;-66
2022/07/08 02:51:31;;;;;;;7.50;2.72;;;14.60;99.90;;;;;;605461;235;26649;-66
2022/07/08 02:53:58;;;;;;;4.60;2.17;;;14.60;99.90;;;;;;601847;236;26636;-66
2022/07/08 02:56:25;;;;;;;4.07;2.03;;;14.60;99.90;;;;;;601726;237;26642;-69
2022/07/08 02:58:53;;;;;;;71.82;15.95;;;14.60;99.90;;;;;;602373;236;26874;-70
2022/07/08 03:01:20;;;;;;;51.25;12.80;;;14.60;99.90;;;;;;602664;235;26607;-68
2022/07/08 03:03:47;;;;;;;57.00;11.90;;;14.60;99.90;;;;;;601640;236;26652;-68
2022/07/08 03:06:14;;;;;;;63.53;11.85;;;14.60;99.90;;;;;;601601;237;26641;-67
2022/07/08 03:08:42;;;;;;;56.35;10.07;;;14.60;99.90;;;;;;602875;235;26622;-67
2022/07/08 03:11:10;;;;;;;38.10;8.75;;;14.60;99.90;;;;;;604914;233;26851;-67
2022/07/08 03:13:37;;;;;;;36.38;8.68;;;14.50;99.90;;;;;;604082;235;26597;-67
2022/07/08 03:16:04;;;;;;;23.05;4.87;;;14.60;99.90;;;;;;605284;236;26851;-67
2022/07/08 03:18:32;;;;;;;10.35;3.70;;;14.60;99.90;;;;;;604850;236;26668;-67
2022/07/08 03:20:59;;;;;;;8.52;2.70;;;14.60;99.90;;;;;;604679;234;26890;-67
2022/07/08 03:23:27;;;;;;;9.00;2.83;;;14.60;99.90;;;;;;605459;235;26606;-65
2022/07/08 03:25:54;;;;;;;10.55;3.00;;;14.70;99.90;;;;;;612919;229;26867;-67
2022/07/08 03:28:21;;;;;;;6.78;2.50;;;14.80;99.90;;;;;;610359;235;26596;-67
2022/07/08 03:30:49;;;;;;;9.38;2.65;;;14.80;99.90;;;;;;601769;236;26951;-67
2022/07/08 03:33:16;;;;;;;4.53;2.50;;;14.90;99.90;;;;;;601836;238;26577;-67
2022/07/08 03:35:43;;;;;;;6.93;2.30;;;14.90;99.90;;;;;;603826;235;26883;-67
2022/07/08 03:38:10;;;;;;;8.48;2.78;;;15.00;99.90;;;;;;601636;237;26590;-67
2022/07/08 03:43:11;;;;;;;6.93;2.30;;;15.00;99.90;;;;;;601609;239;26608;-67
2022/07/08 03:45:39;;;;;;;4.57;1.95;;;15.00;99.90;;;;;;601488;237;26859;-67
2022/07/08 03:48:07;;;;;;;8.07;2.58;;;15.00;99.90;;;;;;601340;237;27337;-67
2022/07/08 03:50:34;;;;;;;6.18;2.70;;;15.00;99.90;;;;;;601421;237;26644;-67
2022/07/08 03:53:01;;;;;;;6.95;2.50;;;15.10;99.90;;;;;;601475;237;26622;-67
2022/07/08 03:55:28;;;;;;;8.23;2.45;;;15.10;99.90;;;;;;601512;239;26734;-67
2022/07/08 03:57:57;;;;;;;6.35;2.42;;;15.10;99.90;;;;;;601522;239;26946;-67
2022/07/08 04:00:24;;;;;;;4.60;2.15;;;15.00;99.90;;;;;;601381;237;26905;-68
2022/07/08 04:02:51;;;;;;;8.38;2.60;;;15.10;99.90;;;;;;601509;237;26623;-67
2022/07/08 04:05:19;;;;;;;8.93;2.85;;;15.00;99.90;;;;;;601510;237;26856;-67
2022/07/08 04:07:47;;;;;;;6.05;2.40;;;14.90;99.90;;;;;;601510;239;26640;-67
2022/07/08 04:10:15;;;;;;;6.90;2.53;;;14.80;99.90;;;;;;601490;238;26661;-67
2022/07/08 04:12:42;;;;;;;5.00;2.65;;;14.80;99.90;;;;;;601417;237;26726;-67
2022/07/08 04:15:10;;;;;;;7.47;2.28;;;14.80;99.90;;;;;;601504;238;26638;-67
2022/07/08 04:17:37;;;;;;;5.70;2.22;;;14.80;99.90;;;;;;601474;239;26658;-67
2022/07/08 04:20:06;;;;;;;5.82;2.10;;;14.90;99.90;;;;;;601809;237;27336;-67
2022/07/08 04:22:33;;;;;;;3.97;2.00;;;14.90;99.90;;;;;;602538;234;26592;-74
2022/07/08 04:25:00;;;;;;;6.93;2.62;;;15.10;99.90;;;;;;602565;239;26915;-72
2022/07/08 04:27:27;;;;;;;6.95;2.22;;;15.20;99.90;;;;;;602317;237;26636;-72
2022/07/08 04:29:55;;;;;;;7.37;2.22;;;15.20;99.90;;;;;;602224;238;26869;-72
2022/07/08 04:32:22;;;;;;;4.32;1.98;;;15.30;99.90;;;;;;601937;238;26585;-72
2022/07/08 04:34:51;;;;;;;4.40;2.30;;;15.40;99.90;;;;;;602114;238;26862;-72
2022/07/08 04:37:17;;;;;;;6.78;2.33;;;15.40;99.90;;;;;;601960;239;26589;-72
2022/07/08 04:39:45;;;;;;;6.78;2.45;;;15.50;99.90;;;;;;601810;237;26542;-71
2022/07/08 04:42:13;;;;;;;3.35;1.92;;;15.60;99.90;;;;;;601680;237;26582;-72
2022/07/08 04:44:41;;;;;;;5.43;2.55;;;15.50;99.90;;;;;;601795;237;26611;-72
2022/07/08 04:47:09;;;;;;;4.30;2.15;;;15.60;99.90;;;;;;601764;237;26577;-72
2022/07/08 04:49:36;;;;;;;7.35;2.30;;;15.50;99.90;;;;;;601801;237;26814;-72
2022/07/08 04:52:06;;;;;;;6.72;2.50;;;15.50;99.90;;;;;;601795;237;26575;-72
2022/07/08 04:54:31;;;;;;;6.93;2.28;;;15.60;99.90;;;;;;601995;239;26562;-72
2022/07/08 04:56:58;;;;;;;4.97;2.20;;;15.70;99.90;;;;;;602001;237;26840;-72
2022/07/08 04:59:26;;;;;;;3.58;2.12;;;15.70;99.90;;;;;;601878;238;26600;-72
2022/07/08 05:01:53;;;;;;;5.97;2.40;;;15.60;99.90;;;;;;601860;237;26913;-72
2022/07/08 05:04:20;;;;;;;6.30;2.50;;;15.70;99.90;;;;;;601818;239;26618;-72
2022/07/08 05:06:47;;;;;;;5.40;2.25;;;15.70;99.90;;;;;;601891;233;26603;-72
2022/07/08 05:09:14;;;;;;;6.20;2.00;;;15.80;99.90;;;;;;601878;237;26586;-72
2022/07/08 05:11:42;;;;;;;6.18;2.10;;;15.90;99.90;;;;;;601854;239;26625;-72
2022/07/08 05:14:13;;;;;;;4.68;1.95;;;16.10;99.90;;;;;;601834;239;26562;-72
2022/07/08 05:16:36;;;;;;;3.45;1.87;;;16.10;99.90;;;;;;603493;235;26861;-72
2022/07/08 05:19:04;;;;;;;4.87;2.40;;;16.10;99.90;;;;;;604598;237;26579;-72
2022/07/08 05:21:32;;;;;;;7.62;2.10;;;16.20;99.90;;;;;;604505;238;26607;-72
2022/07/08 05:24:00;;;;;;;4.50;2.08;;;16.00;99.90;;;;;;607075;236;26583;-72
2022/07/08 05:26:28;;;;;;;4.40;2.12;;;16.10;99.90;;;;;;609748;235;26631;-72
2022/07/08 05:28:56;;;;;;;6.25;2.53;;;16.10;99.90;;;;;;609654;236;26568;-72
2022/07/08 05:31:24;;;;;;;4.57;2.00;;;16.10;99.90;;;;;;609749;236;26842;-72
2022/07/08 05:33:51;;;;;;;5.40;1.90;;;15.90;99.90;;;;;;611439;235;26655;-72
2022/07/08 05:36:18;;;;;;;6.37;2.30;;;15.80;99.90;;;;;;610864;235;26970;-72
2022/07/08 05:38:45;;;;;;;4.45;1.80;;;15.60;99.90;;;;;;610730;235;26575;-72
2022/07/08 05:41:13;;;;;;;7.40;2.20;;;15.50;99.90;;;;;;610602;235;26613;-72
2022/07/08 05:43:41;;;;;;;4.57;2.25;;;15.50;99.90;;;;;;610405;236;26822;-72
2022/07/08 05:46:08;;;;;;;5.35;2.03;;;15.40;99.90;;;;;;610321;236;26587;-72
2022/07/08 05:48:35;;;;;;;4.12;2.10;;;15.40;99.90;;;;;;610382;236;26839;-72
2022/07/08 05:51:02;;;;;;;3.87;1.98;;;15.40;99.90;;;;;;610254;236;26682;-72
2022/07/08 05:53:30;;;;;;;4.22;2.12;;;15.40;99.90;;;;;;601911;236;26602;-72
2022/07/08 05:55:58;;;;;;;4.80;2.08;;;15.60;99.90;;;;;;602719;236;26600;-72
2022/07/08 05:58:26;;;;;;;4.82;2.00;;;15.50;99.90;;;;;;604804;238;26829;-72
2022/07/08 06:00:53;;;;;;;5.57;2.05;;;15.40;99.90;;;;;;604803;238;26861;-72
2022/07/08 06:03:21;;;;;;;4.15;1.80;;;15.50;99.90;;;;;;604840;238;26602;-72
2022/07/08 06:05:49;;;;;;;4.70;2.05;;;15.30;99.90;;;;;;604826;238;26596;-72
2022/07/08 06:08:17;;;;;;;5.62;2.00;;;15.50;99.90;;;;;;604572;237;26617;-72
2022/07/08 06:10:45;;;;;;;4.28;2.10;;;15.50;99.90;;;;;;604530;234;26615;-72
2022/07/08 06:13:13;;;;;;;4.82;2.25;;;15.50;99.90;;;;;;604512;237;26590;-73
2022/07/08 06:15:40;;;;;;;4.30;2.15;;;15.40;99.90;;;;;;604602;238;26590;-72
2022/07/08 06:18:07;;;;;;;4.65;1.95;;;15.40;99.90;;;;;;604461;237;26890;-72
2022/07/08 06:20:34;;;;;;;8.05;2.17;;;15.50;99.90;;;;;;604577;237;26586;-72
2022/07/08 06:23:01;;;;;;;4.62;1.92;;;15.30;99.90;;;;;;604558;237;26829;-72
2022/07/08 06:25:29;;;;;;;5.43;1.90;;;15.50;99.90;;;;;;604564;238;26586;-72
2022/07/08 06:27:56;;;;;;;3.35;1.80;;;15.40;99.90;;;;;;604440;237;26825;-73
2022/07/08 06:30:23;;;;;;;4.47;1.73;;;15.40;99.90;;;;;;604537;234;26599;-72
2022/07/08 06:32:50;;;;;;;3.97;1.62;;;15.50;99.90;;;;;;604543;238;26844;-72
2022/07/08 06:35:18;;;;;;;3.90;1.70;;;15.40;99.90;;;;;;604516;237;26677;-72
2022/07/08 06:37:45;;;;;;;4.25;2.10;;;15.50;99.90;;;;;;604428;238;26829;-72
2022/07/08 06:40:12;;;;;;;4.05;1.70;;;15.50;99.90;;;;;;604564;237;26605;-72
2022/07/08 06:42:39;;;;;;;6.37;2.03;;;15.40;99.90;;;;;;604319;236;27215;-72
2022/07/08 06:45:08;;;;;;;4.53;1.70;;;15.40;99.90;;;;;;603022;237;26636;-73
2022/07/08 06:47:35;;;;;;;4.55;1.60;;;15.40;99.90;;;;;;602616;232;26640;-73
2022/07/08 06:50:02;;;;;;;5.37;2.03;;;15.30;99.90;;;;;;602245;237;26868;-72
2022/07/08 06:52:29;;;;;;;4.47;2.00;;;15.40;99.90;;;;;;602277;238;26638;-73
2022/07/08 06:54:57;;;;;;;4.03;1.90;;;15.50;99.90;;;;;;601963;239;26580;-73
2022/07/08 06:57:24;;;;;;;3.08;1.77;;;15.50;99.90;;;;;;602382;239;26800;-73
2022/07/08 06:59:51;;;;;;;2.55;1.90;;;15.40;99.90;;;;;;602400;239;26557;-73
2022/07/08 07:02:18;;;;;;;5.45;1.65;;;15.30;99.90;;;;;;602270;237;26808;-73
2022/07/08 07:04:46;;;;;;;2.25;1.50;;;15.40;99.90;;;;;;602238;239;26562;-73
2022/07/08 07:07:14;;;;;;;4.53;1.75;;;15.20;99.90;;;;;;602162;239;26549;-73
2022/07/08 07:09:42;;;;;;;3.83;1.58;;;15.30;99.90;;;;;;601886;238;26570;-73
2022/07/08 07:12:10;;;;;;;4.80;1.73;;;15.40;99.90;;;;;;601767;238;26582;-73
2022/07/08 07:14:37;;;;;;;5.10;2.17;;;15.40;99.90;;;;;;601758;239;26588;-73
2022/07/08 07:17:04;;;;;;;3.83;2.00;;;15.30;99.90;;;;;;601774;237;26602;-72
2022/07/08 07:19:32;;;;;;;5.28;1.95;;;15.20;99.90;;;;;;601654;232;26589;-74
2022/07/08 07:21:59;;;;;;;4.47;1.87;;;15.30;99.90;;;;;;601476;237;26685;-73
2022/07/08 07:24:27;;;;;;;3.97;1.90;;;15.30;99.90;;;;;;601518;239;26860;-73
2022/07/08 07:26:53;;;;;;;4.18;1.60;;;15.40;99.90;;;;;;601459;232;26645;-73
2022/07/08 07:29:20;;;;;;;5.32;1.87;;;15.50;99.90;;;;;;601479;237;27260;-73
2022/07/08 07:31:48;;;;;;;4.55;1.98;;;15.60;99.90;;;;;;601405;232;26648;-72
2022/07/08 07:34:15;;;;;;;3.80;2.03;;;15.60;99.90;;;;;;601525;238;27283;-73
2022/07/08 07:36:42;;;;;;;5.05;1.98;;;15.60;99.90;;;;;;601534;237;26603;-73
2022/07/08 07:39:09;;;;;;;3.70;1.70;;;15.80;99.90;;;;;;602388;236;26638;-73
2022/07/08 07:41:36;;;;;;;2.87;1.50;;;15.70;99.90;;;;;;603766;236;26880;-73
2022/07/08 07:44:04;;;;;;;2.72;1.50;;;15.80;99.90;;;;;;606426;235;26702;-73
2022/07/08 07:46:31;;;;;;;5.18;1.80;;;15.80;99.90;;;;;;606552;235;26877;-73
2022/07/08 07:48:58;;;;;;;7.25;2.17;;;16.00;99.90;;;;;;604287;236;26627;-73
2022/07/08 07:51:25;;;;;;;4.75;1.70;;;16.20;99.90;;;;;;604433;232;27321;-72
2022/07/08 07:53:52;;;;;;;3.53;1.62;;;16.30;99.60;;;;;;603136;235;26637;-71
2022/07/08 07:56:20;;;;;;;2.78;1.70;;;16.20;99.70;;;;;;610418;233;26852;-71
2022/07/08 07:58:48;;;;;;;2.65;1.42;;;16.70;98.90;;;;;;605861;231;26577;-70
2022/07/08 08:01:16;;;;;;;3.75;1.55;;;16.90;98.60;;;;;;609755;235;26608;-71
2022/07/08 08:03:44;;;;;;;2.83;1.58;;;17.10;97.70;;;;;;606347;235;26630;-71
2022/07/08 08:06:12;;;;;;;6.45;1.85;;;17.00;97.60;;;;;;607999;236;26589;-71
2022/07/08 08:08:39;;;;;;;5.37;1.90;;;16.90;97.40;;;;;;603136;232;26637;-71
2022/07/08 08:11:07;;;;;;;3.60;1.67;;;16.90;97.30;;;;;;603569;237;26913;-71
2022/07/08 08:13:34;;;;;;;4.30;1.70;;;17.00;96.90;;;;;;605481;235;26631;-70
2022/07/08 08:16:01;;;;;;;7.60;1.70;;;17.10;96.20;;;;;;605614;235;26596;-73
2022/07/08 08:18:28;;;;;;;2.87;1.52;;;17.10;95.00;;;;;;604591;236;26845;-72
2022/07/08 08:20:56;;;;;;;5.20;1.62;;;17.20;94.80;;;;;;604444;236;26612;-72
2022/07/08 08:23:23;;;;;;;2.35;1.30;;;17.30;94.10;;;;;;603980;236;27262;-72
2022/07/08 08:25:50;;;;;;;4.65;1.95;;;17.50;93.90;;;;;;603001;238;26567;-71
2022/07/08 08:28:17;;;;;;;5.47;1.52;;;17.60;93.40;;;;;;603196;238;26859;-72
2022/07/08 08:30:44;;;;;;;5.10;1.95;;;17.40;92.80;;;;;;606412;235;26676;-72
2022/07/08 08:33:12;;;;;;;4.78;2.05;;;17.30;92.50;;;;;;603510;236;27263;-71
2022/07/08 08:35:39;;;;;;;5.28;1.87;;;17.30;92.70;;;;;;604592;237;26576;-72
2022/07/08 08:38:06;;;;;;;3.30;1.52;;;17.50;92.40;;;;;;604506;237;26853;-72
2022/07/08 08:40:33;;;;;;;9.15;2.10;;;17.30;92.50;;;;;;607680;236;26782;-71
2022/07/08 08:43:00;;;;;;;4.68;2.15;;;17.30;92.70;;;;;;605506;236;26927;-73
2022/07/08 08:45:28;;;;;;;2.45;1.58;;;17.10;92.50;;;;;;601820;237;26645;-72
2022/07/08 08:47:57;;;;;;;5.50;2.10;;;17.00;92.10;;;;;;604007;236;26589;-72
2022/07/08 08:52:57;;;;;;;3.97;1.80;;;17.10;92.50;;;;;;605648;235;26622;-72
2022/07/08 08:55:27;;;;;;;4.53;1.60;;;17.20;92.20;;;;;;601487;237;26851;-73
2022/07/08 08:57:56;;;;;;;3.90;1.40;;;17.00;92.10;;;;;;605022;235;26676;-73
2022/07/08 09:00:24;;;;;;;4.10;1.90;;;17.10;91.80;;;;;;606411;235;26648;-74
2022/07/08 09:02:51;;;;;;;2.85;1.62;;;17.20;91.40;;;;;;601453;237;26705;-72
2022/07/08 09:05:19;;;;;;;3.92;1.52;;;17.10;91.20;;;;;;601658;237;26846;-72
2022/07/08 09:07:46;;;;;;;4.60;1.85;;;17.30;91.40;;;;;;607093;235;26587;-73
2022/07/08 09:10:15;;;;;;;3.08;1.80;;;17.40;90.60;;;;;;606772;234;26648;-72
2022/07/08 09:13:04;;;;;;;3.10;1.67;;;17.30;90.60;;;;;;605482;235;26861;-73
2022/07/08 09:15:31;;;;;;;7.37;2.20;;;17.30;90.70;;;;;;604784;235;26680;-72
2022/07/08 09:18:00;;;;;;;4.87;1.70;;;17.50;90.50;;;;;;603279;237;26606;-72
2022/07/08 09:20:27;;;;;;;3.03;1.52;;;17.50;90.30;;;;;;606747;234;26842;-72
2022/07/08 09:22:54;;;;;;;3.15;1.73;;;17.40;90.00;;;;;;603795;236;26588;-72
2022/07/08 09:25:21;;;;;;;6.85;1.85;;;17.60;89.70;;;;;;601731;236;26820;-72
2022/07/08 09:27:49;;;;;;;5.20;1.90;;;17.30;89.10;;;;;;604133;236;26569;-72
2022/07/08 09:30:16;;;;;;;3.40;1.70;;;17.30;89.60;;;;;;603935;235;26860;-72
2022/07/08 09:32:57;;;;;;;3.42;1.55;;;17.50;88.20;;;;;;603267;235;26583;-72
2022/07/08 09:35:27;;;;;;;2.60;1.45;;;17.50;88.20;;;;;;607685;235;26643;-72
2022/07/08 09:37:55;;;;;;;3.58;1.50;;;17.60;88.80;;;;;;604203;234;26581;-72
2022/07/08 09:40:22;;;;;;;4.32;1.55;;;17.80;87.20;;;;;;602812;236;26828;-72
2022/07/08 09:42:49;;;;;;;2.50;1.40;;;17.20;87.80;;;;;;603896;235;26610;-73
2022/07/08 09:45:16;;;;;;;2.55;1.52;;;17.20;88.90;;;;;;601683;236;26962;-73
2022/07/08 09:47:43;;;;;;;3.92;1.50;;;17.40;88.90;;;;;;602885;232;26607;-68
2022/07/08 09:50:11;;;;;;;8.95;2.10;;;17.60;87.90;;;;;;604485;237;27012;-67
2022/07/08 09:52:38;;;;;;;7.90;2.05;;;17.60;87.90;;;;;;602674;237;26670;-72
2022/07/08 09:55:05;;;;;;;3.62;1.35;;;17.70;87.80;;;;;;604139;235;26909;-69
2022/07/08 09:57:32;;;;;;;3.55;1.83;;;17.80;87.40;;;;;;610143;235;26835;-71
2022/07/08 09:59:59;;;;;;;4.82;1.60;;;18.00;87.40;;;;;;608405;235;26682;-72
2022/07/08 10:02:27;;;;;;;3.03;1.52;;;18.10;85.50;;;;;;602689;236;26846;-72
2022/07/08 10:04:54;;;;;;;6.60;1.70;;;18.30;84.70;;;;;;608115;236;26584;-72
2022/07/08 10:07:21;;;;;;;4.22;1.52;;;18.50;84.20;;;;;;602292;236;27020;-72
2022/07/08 10:09:48;;;;;;;3.65;1.30;;;18.30;83.50;;;;;;604246;232;26610;-72
2022/07/08 10:12:16;;;;;;;4.65;1.70;;;18.60;84.00;;;;;;606939;235;26861;-72
2022/07/08 10:14:45;;;;;;;2.33;1.37;;;18.60;82.70;;;;;;604223;232;26582;-72
2022/07/08 10:17:12;;;;;;;3.87;1.33;;;18.50;82.00;;;;;;606291;234;26621;-72
2022/07/08 10:19:40;;;;;;;5.62;1.40;;;18.70;81.10;;;;;;605593;233;26579;-72
2022/07/08 10:22:07;;;;;;;4.60;1.87;;;18.70;81.10;;;;;;607823;234;26854;-71
2022/07/08 10:24:34;;;;;;;5.25;1.17;;;18.40;81.00;;;;;;603471;237;26582;-71
2022/07/08 10:27:01;;;;;;;2.55;1.50;;;18.20;82.60;;;;;;601966;235;26954;-70
2022/07/08 10:29:28;;;;;;;5.03;1.62;;;18.70;81.10;;;;;;604522;237;26633;-70
2022/07/08 10:31:56;;;;;;;3.05;1.60;;;18.90;79.00;;;;;;603049;237;26883;-70
2022/07/08 10:34:31;;;;;;;4.25;1.50;;;19.20;79.70;;;;;;603346;237;26560;-70
2022/07/08 10:36:59;;;;;;;3.62;1.45;;;19.30;78.50;;;;;;605763;235;26836;-71
2022/07/08 10:39:28;;;;;;;2.45;1.62;;;19.80;78.20;;;;;;603188;235;26827;-70
2022/07/08 10:41:58;;;;;;;2.12;1.23;;;19.70;76.30;;;;;;601682;239;26863;-70
2022/07/08 10:44:52;;;;;;;4.18;1.50;;;19.90;75.60;;;;;;601929;236;26800;-70
2022/07/08 10:47:33;;;;;;;3.00;1.50;;;19.90;75.60;;;;;;602836;234;26607;-70
2022/07/08 10:50:05;;;;;;;4.68;1.87;;;20.00;74.20;;;;;;606852;236;26712;-70
2022/07/08 10:52:32;;;;;;;89.82;16.58;;;20.20;71.90;;;;;;608284;233;26562;-68
2022/07/08 10:55:09;;;;;;;121.93;25.37;;;20.20;72.10;;;;;;609144;236;26800;-68
2022/07/08 10:57:36;;;;;;;158.85;30.88;;;19.70;70.00;;;;;;612876;234;26645;-69
2022/07/08 11:00:07;;;;;;;136.82;27.35;;;19.60;70.10;;;;;;607138;236;26665;-68
2022/07/08 11:02:40;;;;;;;112.05;23.00;;;19.60;70.10;;;;;;606288;235;26721;-67
2022/07/08 11:05:08;;;;;;;92.45;18.85;;;20.10;68.50;;;;;;602030;237;26844;-68
2022/07/08 11:07:35;;;;;;;70.65;17.55;;;20.60;66.90;;;;;;602104;235;26581;-67
2022/07/08 11:10:06;;;;;;;69.80;16.60;;;20.70;65.70;;;;;;604651;235;26885;-68
2022/07/08 11:12:35;;;;;;;55.78;12.85;;;20.70;65.70;;;;;;607150;233;26850;-68
2022/07/08 11:15:04;;;;;;;61.58;15.50;;;20.90;64.00;;;;;;604514;235;26662;-68
2022/07/08 11:17:31;;;;;;;62.58;14.30;;;21.40;62.50;;;;;;607955;235;26858;-68
2022/07/08 11:19:58;;;;;;;54.03;12.18;;;21.70;60.00;;;;;;603426;236;26657;-68
2022/07/08 11:22:25;;;;;;;48.40;11.27;;;21.90;60.10;;;;;;606516;235;26660;-68
2022/07/08 11:24:52;;;;;;;44.28;10.98;;;22.00;59.40;;;;;;605668;235;26601;-68
2022/07/08 11:27:23;;;;;;;22.77;5.22;;;21.00;59.80;;;;;;603986;238;26585;-68
2022/07/08 11:29:51;;;;;;;22.37;6.53;;;21.00;60.40;;;;;;603977;233;26648;-68
2022/07/08 11:32:19;;;;;;;22.85;5.78;;;21.60;60.00;;;;;;607004;234;26636;-69
2022/07/08 11:34:47;;;;;;;16.05;5.40;;;22.00;59.50;;;;;;608264;235;26590;-69
2022/07/08 11:37:15;;;;;;;11.50;4.05;;;22.00;58.70;;;;;;605664;235;26598;-69
2022/07/08 11:39:43;;;;;;;10.25;3.37;;;22.20;57.10;;;;;;604111;236;26616;-69
2022/07/08 11:42:11;;;;;;;7.10;2.28;;;22.20;56.50;;;;;;607276;235;26575;-69
2022/07/08 11:44:39;;;;;;;8.50;2.70;;;22.20;57.30;;;;;;603035;237;26549;-69
2022/07/08 11:47:07;;;;;;;7.50;2.12;;;22.20;56.00;;;;;;604226;237;26632;-69
2022/07/08 11:49:35;;;;;;;6.80;2.20;;;22.40;55.60;;;;;;604812;233;26590;-69
2022/07/08 11:52:04;;;;;;;6.68;1.87;;;22.10;54.80;;;;;;603056;238;26577;-69
2022/07/08 11:54:31;;;;;;;6.40;2.17;;;22.10;54.80;;;;;;603447;238;27116;-69
2022/07/08 11:56:59;;;;;;;7.75;2.33;;;22.60;54.60;;;;;;602441;237;26599;-69
2022/07/08 11:59:27;;;;;;;5.78;1.83;;;22.20;54.70;;;;;;602155;237;26587;-69
2022/07/08 12:01:55;;;;;;;6.30;2.03;;;21.80;55.40;;;;;;603726;237;26598;-69
2022/07/08 12:04:23;;;;;;;5.07;2.05;;;21.40;55.10;;;;;;603212;238;26586;-69
2022/07/08 12:06:50;;;;;;;4.37;1.40;;;21.40;55.00;;;;;;602293;238;26644;-69
2022/07/08 12:09:18;;;;;;;6.10;2.00;;;21.20;55.60;;;;;;604806;235;26589;-69
2022/07/08 12:11:45;;;;;;;5.75;2.17;;;20.90;56.30;;;;;;610252;235;26900;-69
2022/07/08 12:14:12;;;;;;;5.20;1.83;;;20.80;56.80;;;;;;610802;235;26575;-69
2022/07/08 12:16:41;;;;;;;4.35;1.73;;;20.70;56.70;;;;;;605383;234;26855;-69
2022/07/08 12:19:07;;;;;;;4.57;1.62;;;20.50;56.60;;;;;;604331;236;26573;-73
2022/07/08 12:21:35;;;;;;;3.92;1.85;;;20.60;56.70;;;;;;604159;235;27331;-69
2022/07/08 12:24:03;;;;;;;6.05;2.25;;;20.60;56.70;;;;;;603248;236;26859;-69
2022/07/08 12:26:30;;;;;;;7.22;2.00;;;20.70;56.50;;;;;;602603;236;26656;-70
2022/07/08 12:28:57;;;;;;;3.70;1.42;;;20.80;56.90;;;;;;602601;238;26592;-70
2022/07/08 12:31:32;;;;;;;4.20;1.52;;;21.50;56.00;;;;;;605400;236;26622;-72
2022/07/08 12:34:01;;;;;;;4.65;1.73;;;21.40;55.90;;;;;;602584;238;26606;-69
2022/07/08 12:36:28;;;;;;;4.97;1.62;;;21.40;55.60;;;;;;604297;238;26777;-71
2022/07/08 12:38:56;;;;;;;3.90;1.65;;;21.40;55.80;;;;;;608435;236;26855;-71
2022/07/08 12:41:23;;;;;;;6.25;1.77;;;21.60;55.60;;;;;;612284;232;26648;-71
2022/07/08 12:43:50;;;;;;;2.80;1.40;;;21.80;54.90;;;;;;611290;230;26912;-70
2022/07/08 12:46:18;;;;;;;5.90;1.92;;;22.00;54.80;;;;;;606668;230;26591;-70
2022/07/08 12:48:46;;;;;;;4.20;1.87;;;22.20;55.00;;;;;;608347;235;26645;-70
2022/07/08 12:51:14;;;;;;;5.45;1.60;;;21.90;54.80;;;;;;603301;235;26672;-71
2022/07/08 12:53:42;;;;;;;3.65;1.60;;;21.70;54.80;;;;;;606394;236;26627;-70
2022/07/08 12:56:09;;;;;;;3.17;1.70;;;21.70;54.80;;;;;;606647;235;26598;-69